createdAt,value
2023-01-26T00:02:32.368Z,100.00
2023-01-26T00:06:34.416Z,100.00
2023-01-26T00:10:37.898Z,100.00
2023-01-26T00:14:52.828Z,100.00
2023-01-26T00:18:54.856Z,100.00
2023-01-26T00:22:56.896Z,100.00
2023-01-26T00:26:59.599Z,100.00
2023-01-26T00:31:04.395Z,100.00
2023-01-26T00:35:06.868Z,100.00
2023-01-26T00:39:12.271Z,100.00
2023-01-26T00:43:14.369Z,100.00
2023-01-26T00:47:17.315Z,100.00
2023-01-26T00:51:19.291Z,100.00
2023-01-26T00:55:21.509Z,100.00
2023-01-26T00:59:24.014Z,100.00
2023-01-26T01:03:26.031Z,100.00
2023-01-26T01:07:28.431Z,100.00
2023-01-26T01:11:30.420Z,100.00
2023-01-26T01:15:32.419Z,100.00
2023-01-26T01:19:34.458Z,100.00
2023-01-26T01:23:36.667Z,100.00
2023-01-26T01:27:38.802Z,100.00
2023-01-26T01:31:41.670Z,100.00
2023-01-26T01:35:44.882Z,100.00
2023-01-26T01:39:46.859Z,100.00
2023-01-26T01:43:49.497Z,100.00
2023-01-26T01:47:53.026Z,100.00
2023-01-26T01:51:55.025Z,100.00
2023-01-26T01:55:58.802Z,100.00
2023-01-26T02:00:06.008Z,100.00
2023-01-26T02:04:15.012Z,100.00
2023-01-26T02:08:19.241Z,100.00
2023-01-26T02:12:27.509Z,100.00
2023-01-26T02:16:29.527Z,100.00
2023-01-26T02:20:37.789Z,100.00
2023-01-26T02:24:40.740Z,100.00
2023-01-26T02:28:45.044Z,100.00
2023-01-26T02:32:47.429Z,100.00
2023-01-26T02:37:00.100Z,100.00
2023-01-26T02:41:04.831Z,100.00
2023-01-26T02:45:07.257Z,100.00
2023-01-26T02:49:28.067Z,100.00
2023-01-26T02:53:30.118Z,100.00
2023-01-26T02:57:34.479Z,100.00
2023-01-26T03:01:36.390Z,100.00
2023-01-26T03:05:40.206Z,100.00
2023-01-26T03:09:43.736Z,100.00
2023-01-26T03:13:47.296Z,100.00
2023-01-26T03:17:49.245Z,100.00
2023-01-26T03:22:11.027Z,100.00
2023-01-26T03:26:31.518Z,100.00
2023-01-26T03:30:33.885Z,100.00
2023-01-26T03:34:36.996Z,100.00
2023-01-26T03:38:39.923Z,100.00
2023-01-26T03:43:00.943Z,100.00
2023-01-26T03:47:23.879Z,100.00
2023-01-26T03:51:44.858Z,100.00
2023-01-26T03:56:05.465Z,100.00
2023-01-26T04:00:09.686Z,100.00
2023-01-26T04:04:33.238Z,100.00
2023-01-26T04:08:36.067Z,100.00
2023-01-26T04:12:41.367Z,100.00
2023-01-26T04:17:11.032Z,100.00
2023-01-26T04:21:33.491Z,100.00
2023-01-26T04:25:38.837Z,100.00
2023-01-26T04:29:42.336Z,100.00
2023-01-26T04:33:44.367Z,100.00
2023-01-26T04:37:47.513Z,100.00
2023-01-26T04:41:49.730Z,100.00
2023-01-26T04:46:00.210Z,100.00
2023-01-26T04:50:03.933Z,100.00
2023-01-26T04:54:07.308Z,100.00
2023-01-26T04:58:13.262Z,100.00
2023-01-26T05:02:15.302Z,100.00
2023-01-26T05:06:17.387Z,100.00
2023-01-26T05:10:21.859Z,100.00
2023-01-26T05:14:53.435Z,100.00
2023-01-26T05:19:15.380Z,100.00
2023-01-26T05:23:47.148Z,100.00
2023-01-26T05:28:00.338Z,100.00
2023-01-26T05:32:03.074Z,100.00
2023-01-26T05:36:08.705Z,100.00
2023-01-26T05:40:11.513Z,100.00
2023-01-26T05:44:14.763Z,100.00
2023-01-26T05:48:20.344Z,100.00
2023-01-26T05:52:26.137Z,100.00
2023-01-26T05:56:28.465Z,100.00
2023-01-26T06:00:35.145Z,100.00
2023-01-26T06:04:43.446Z,100.00
2023-01-26T06:08:46.097Z,100.00
2023-01-26T06:13:08.302Z,100.00
2023-01-26T06:17:20.567Z,100.00
2023-01-26T06:21:26.643Z,100.00
2023-01-26T06:25:29.426Z,100.00
2023-01-26T06:29:32.558Z,100.00
2023-01-26T06:33:35.900Z,100.00
2023-01-26T06:37:38.588Z,100.00
2023-01-26T06:41:42.540Z,100.00
2023-01-26T06:45:44.686Z,100.00
2023-01-26T06:49:46.728Z,100.00
2023-01-26T06:53:54.950Z,100.00
2023-01-26T06:58:03.199Z,100.00
2023-01-26T07:02:27.920Z,100.00
2023-01-26T07:06:29.998Z,100.00
2023-01-26T07:10:32.307Z,100.00
2023-01-26T07:14:35.242Z,100.00
2023-01-26T07:18:37.483Z,100.00
2023-01-26T07:22:39.553Z,100.00
2023-01-26T07:26:41.535Z,100.00
2023-01-26T07:30:43.752Z,100.00
2023-01-26T07:34:45.875Z,100.00
2023-01-26T07:38:48.467Z,100.00
2023-01-26T07:42:50.871Z,100.00
2023-01-26T07:46:54.717Z,100.00
2023-01-26T07:51:01.259Z,100.00
2023-01-26T07:55:03.265Z,100.00
2023-01-26T07:59:05.545Z,100.00
2023-01-26T08:03:07.704Z,100.00
2023-01-26T08:07:09.764Z,100.00
2023-01-26T08:11:12.752Z,100.00
2023-01-26T08:15:14.976Z,100.00
2023-01-26T08:19:17.038Z,100.00
2023-01-26T08:23:19.495Z,100.00
2023-01-26T08:27:22.743Z,100.00
2023-01-26T08:31:25.611Z,100.00
2023-01-26T08:35:27.876Z,100.00
2023-01-26T08:39:29.932Z,100.00
2023-01-26T08:43:31.985Z,100.00
2023-01-26T08:47:34.020Z,100.00
2023-01-26T08:51:36.239Z,100.00
2023-01-26T08:55:38.209Z,100.00
2023-01-26T08:59:40.172Z,100.00
2023-01-26T09:03:43.012Z,100.00
2023-01-26T09:07:45.010Z,100.00
2023-01-26T09:11:46.970Z,100.00
2023-01-26T09:15:49.306Z,100.00
2023-01-26T09:19:51.399Z,100.00
2023-01-26T09:23:53.427Z,100.00
2023-01-26T09:27:55.508Z,100.00
2023-01-26T09:31:57.689Z,100.00
2023-01-26T09:36:04.367Z,100.00
2023-01-26T09:40:06.761Z,100.00
2023-01-26T09:44:23.947Z,100.00
2023-01-26T09:48:33.314Z,100.00
2023-01-26T09:52:51.195Z,100.00
2023-01-26T09:56:54.731Z,100.00
2023-01-26T10:01:03.560Z,100.00
2023-01-26T10:05:13.508Z,100.00
2023-01-26T10:09:27.006Z,100.00
2023-01-26T10:13:29.854Z,100.00
2023-01-26T10:17:34.104Z,100.00
2023-01-26T10:21:40.165Z,100.00
2023-01-26T10:25:43.046Z,100.00
2023-01-26T10:29:45.190Z,100.00
2023-01-26T10:33:50.429Z,100.00
2023-01-26T10:37:53.172Z,100.00
2023-01-26T10:42:00.165Z,100.00
2023-01-26T10:46:03.304Z,100.00
2023-01-26T10:50:14.284Z,100.00
2023-01-26T10:54:20.838Z,100.00
2023-01-26T10:58:40.929Z,100.00
2023-01-26T11:02:50.291Z,97.92
2023-01-26T11:06:52.734Z,99.16
2023-01-26T11:10:57.336Z,97.91
2023-01-26T11:15:01.759Z,96.74
2023-01-26T11:19:11.398Z,95.87
2023-01-26T11:23:34.032Z,96.73
2023-01-26T11:27:44.067Z,100.00
2023-01-26T11:32:13.708Z,100.00
2023-01-26T11:36:28.270Z,99.27
2023-01-26T11:40:45.859Z,100.00
2023-01-26T11:44:47.753Z,100.00
2023-01-26T11:48:49.911Z,99.83
2023-01-26T11:52:52.245Z,99.50
2023-01-26T11:57:04.886Z,100.00
2023-01-26T12:01:09.891Z,97.85
2023-01-26T12:05:23.898Z,99.35
2023-01-26T12:09:38.864Z,97.46
2023-01-26T12:13:44.015Z,98.24
2023-01-26T12:18:04.792Z,98.46
2023-01-26T12:22:24.999Z,94.63
2023-01-26T12:26:29.358Z,94.78
2023-01-26T12:30:38.577Z,94.92
2023-01-26T12:34:40.632Z,91.88
2023-01-26T12:39:03.774Z,90.86
2023-01-26T12:43:21.311Z,94.33
2023-01-26T12:47:43.549Z,93.64
2023-01-26T12:51:49.272Z,90.86
2023-01-26T12:55:56.828Z,91.18
2023-01-26T13:00:18.799Z,91.77
2023-01-26T13:04:20.903Z,90.35
2023-01-26T13:08:32.082Z,87.95
2023-01-26T13:12:49.351Z,89.83
2023-01-26T13:16:51.399Z,88.70
2023-01-26T13:20:53.459Z,90.42
2023-01-26T13:24:59.625Z,89.86
2023-01-26T13:29:34.153Z,89.28
2023-01-26T13:33:36.396Z,91.10
2023-01-26T13:37:58.646Z,90.96
2023-01-26T13:42:01.403Z,90.13
2023-01-26T13:46:23.836Z,90.54
2023-01-26T13:50:30.497Z,89.90
2023-01-26T13:54:33.054Z,89.32
2023-01-26T13:58:35.309Z,86.09
2023-01-26T14:02:38.844Z,85.91
2023-01-26T14:06:42.637Z,84.35
2023-01-26T14:10:45.225Z,84.25
2023-01-26T14:14:48.175Z,86.97
2023-01-26T14:18:50.331Z,89.06
2023-01-26T14:23:08.177Z,90.84
2023-01-26T14:27:29.806Z,92.12
2023-01-26T14:31:32.415Z,94.97
2023-01-26T14:35:34.562Z,96.89
2023-01-26T14:39:36.652Z,98.36
2023-01-26T14:43:38.598Z,98.21
2023-01-26T14:47:41.155Z,100.00
2023-01-26T14:51:47.279Z,100.00
2023-01-26T14:55:50.333Z,100.00
2023-01-26T14:59:53.969Z,100.00
2023-01-26T15:04:15.473Z,100.00
2023-01-26T15:08:22.284Z,100.00
2023-01-26T15:12:24.502Z,100.00
2023-01-26T15:16:26.803Z,100.00
2023-01-26T15:20:28.796Z,100.00
2023-01-26T15:24:30.715Z,100.00
2023-01-26T15:28:32.997Z,100.00
2023-01-26T15:32:39.811Z,100.00
2023-01-26T15:36:49.359Z,100.00
2023-01-26T15:40:51.379Z,100.00
2023-01-26T15:44:53.504Z,100.00
2023-01-26T15:48:56.228Z,100.00
2023-01-26T15:52:58.184Z,100.00
2023-01-26T15:57:00.665Z,100.00
2023-01-26T16:01:02.749Z,100.00
2023-01-26T16:05:12.957Z,100.00
2023-01-26T16:09:21.762Z,100.00
2023-01-26T16:13:23.915Z,100.00
2023-01-26T16:17:25.997Z,100.00
2023-01-26T16:21:31.589Z,100.00
2023-01-26T16:25:33.685Z,100.00
2023-01-26T16:29:35.895Z,100.00
2023-01-26T16:33:38.011Z,100.00
2023-01-26T16:37:42.519Z,100.00
2023-01-26T16:41:44.909Z,100.00
2023-01-26T16:45:47.010Z,100.00
2023-01-26T16:49:49.212Z,100.00
2023-01-26T16:53:51.497Z,100.00
2023-01-26T16:57:53.653Z,100.00
2023-01-26T17:01:55.867Z,100.00
2023-01-26T17:05:57.835Z,100.00
2023-01-26T17:09:59.891Z,100.00
2023-01-26T17:14:03.163Z,100.00
2023-01-26T17:18:05.178Z,100.00
2023-01-26T17:22:07.788Z,100.00
2023-01-26T17:26:11.353Z,100.00
2023-01-26T17:30:13.837Z,100.00
2023-01-26T17:34:16.790Z,100.00
2023-01-26T17:38:18.897Z,100.00
2023-01-26T17:42:20.837Z,100.00
2023-01-26T17:46:22.901Z,100.00
2023-01-26T17:50:25.675Z,100.00
2023-01-26T17:54:27.718Z,100.00
2023-01-26T17:58:29.767Z,100.00
2023-01-26T18:02:31.962Z,100.00
2023-01-26T18:06:34.052Z,100.00
2023-01-26T18:10:35.999Z,100.00
2023-01-26T18:14:37.971Z,100.00
2023-01-26T18:18:40.438Z,100.00
2023-01-26T18:22:43.896Z,100.00
2023-01-26T18:26:46.021Z,100.00
2023-01-26T18:30:48.614Z,100.00
2023-01-26T18:34:51.756Z,100.00
2023-01-26T18:38:55.591Z,100.00
2023-01-26T18:42:58.039Z,100.00
2023-01-26T18:47:00.579Z,100.00
2023-01-26T18:51:03.939Z,100.00
2023-01-26T18:55:06.175Z,100.00
2023-01-26T18:59:12.604Z,100.00
2023-01-26T19:03:14.759Z,100.00
2023-01-26T19:07:16.725Z,100.00
2023-01-26T19:11:18.662Z,100.00
2023-01-26T19:15:20.671Z,100.00
2023-01-26T19:19:22.712Z,100.00
2023-01-26T19:23:24.793Z,100.00
2023-01-26T19:27:26.740Z,100.00
2023-01-26T19:31:29.288Z,100.00
2023-01-26T19:35:31.517Z,100.00
2023-01-26T19:39:33.578Z,100.00
2023-01-26T19:43:36.218Z,100.00
2023-01-26T19:47:39.067Z,100.00
2023-01-26T19:51:41.470Z,100.00
2023-01-26T19:55:43.673Z,100.00
2023-01-26T19:59:45.897Z,100.00
2023-01-26T20:03:51.892Z,100.00
2023-01-26T20:07:54.150Z,100.00
2023-01-26T20:11:56.349Z,100.00
2023-01-26T20:15:58.403Z,100.00
2023-01-26T20:20:00.408Z,100.00
2023-01-26T20:24:06.749Z,100.00
2023-01-26T20:28:09.216Z,100.00
2023-01-26T20:32:11.160Z,100.00
2023-01-26T20:36:16.559Z,100.00
2023-01-26T20:40:18.694Z,100.00
2023-01-26T20:44:20.684Z,100.00
2023-01-26T20:48:22.756Z,100.00
2023-01-26T20:52:25.359Z,100.00
2023-01-26T20:56:27.792Z,100.00
2023-01-26T21:00:29.791Z,100.00
2023-01-26T21:04:32.484Z,100.00
2023-01-26T21:08:36.711Z,100.00
2023-01-26T21:12:38.749Z,100.00
2023-01-26T21:16:40.908Z,100.00
2023-01-26T21:20:42.851Z,100.00
2023-01-26T21:24:44.893Z,100.00
2023-01-26T21:28:51.234Z,100.00
2023-01-26T21:32:53.277Z,100.00
2023-01-26T21:36:55.347Z,100.00
2023-01-26T21:40:57.906Z,100.00
2023-01-26T21:45:18.659Z,100.00
2023-01-26T21:49:21.271Z,100.00
2023-01-26T21:53:23.475Z,100.00
2023-01-26T21:57:44.045Z,100.00
2023-01-26T22:01:47.319Z,100.00
2023-01-26T22:05:53.490Z,100.00
2023-01-26T22:09:56.348Z,100.00
2023-01-26T22:13:58.664Z,100.00
2023-01-26T22:18:00.724Z,100.00
2023-01-26T22:22:03.857Z,100.00
2023-01-26T22:26:07.194Z,100.00
2023-01-26T22:30:09.982Z,100.00
2023-01-26T22:34:12.289Z,100.00
2023-01-26T22:38:14.367Z,100.00
2023-01-26T22:42:16.340Z,100.00
2023-01-26T22:46:19.452Z,100.00
2023-01-26T22:50:21.604Z,100.00
2023-01-26T22:54:23.833Z,100.00
2023-01-26T22:58:25.760Z,100.00
2023-01-26T23:02:27.882Z,100.00
2023-01-26T23:06:30.199Z,100.00
2023-01-26T23:10:32.660Z,100.00
2023-01-26T23:14:34.754Z,100.00
2023-01-26T23:18:37.118Z,100.00
2023-01-26T23:22:39.074Z,100.00
2023-01-26T23:26:41.178Z,100.00
2023-01-26T23:30:43.232Z,100.00
2023-01-26T23:34:45.238Z,100.00
2023-01-26T23:38:47.405Z,100.00
2023-01-26T23:43:03.676Z,100.00
2023-01-26T23:47:09.373Z,100.00
2023-01-26T23:51:11.805Z,100.00
2023-01-26T23:55:13.999Z,100.00
2023-01-26T23:59:15.986Z,100.00
